createdAt,value
2018-08-07T00:00:25.741Z,0
2018-08-07T00:01:25.740Z,0
2018-08-07T00:02:25.741Z,0
2018-08-07T00:03:25.814Z,0
2018-08-07T00:04:25.746Z,0
2018-08-07T00:05:25.849Z,0
2018-08-07T00:06:25.790Z,0
2018-08-07T00:07:25.735Z,0
2018-08-07T00:08:25.733Z,0
2018-08-07T00:09:25.849Z,0
2018-08-07T00:10:25.835Z,0
2018-08-07T00:11:25.757Z,0
2018-08-07T00:12:25.785Z,0
2018-08-07T00:13:25.736Z,0
2018-08-07T00:14:25.848Z,0
2018-08-07T00:15:25.788Z,0
2018-08-07T00:16:25.915Z,0
2018-08-07T00:17:25.746Z,0
2018-08-07T00:18:25.787Z,0
2018-08-07T00:19:25.823Z,0
2018-08-07T00:20:25.832Z,0
2018-08-07T00:21:25.818Z,0
2018-08-07T00:22:25.779Z,0
2018-08-07T00:23:25.802Z,0
2018-08-07T00:24:25.903Z,0
2018-08-07T00:25:25.826Z,0
2018-08-07T00:26:25.761Z,0
2018-08-07T00:27:25.761Z,0
2018-08-07T00:28:25.832Z,0
2018-08-07T00:29:25.762Z,0
2018-08-07T00:30:25.764Z,0
2018-08-07T00:31:25.829Z,0
2018-08-07T00:32:25.832Z,0
2018-08-07T00:33:25.776Z,0
2018-08-07T00:34:25.836Z,0
2018-08-07T00:35:25.834Z,0
2018-08-07T00:36:25.760Z,0
2018-08-07T00:37:25.759Z,0
2018-08-07T00:38:25.809Z,0
2018-08-07T00:39:25.882Z,0
2018-08-07T00:40:25.836Z,0
2018-08-07T00:41:25.803Z,0
2018-08-07T00:42:25.836Z,0
2018-08-07T00:43:25.816Z,0
2018-08-07T00:44:25.837Z,0
2018-08-07T00:45:25.844Z,0
2018-08-07T00:46:25.778Z,0
2018-08-07T00:47:25.845Z,0
2018-08-07T00:48:25.783Z,0
2018-08-07T00:49:25.722Z,0
2018-08-07T00:50:25.867Z,0
2018-08-07T00:51:25.846Z,0
2018-08-07T00:52:25.780Z,0
2018-08-07T00:53:25.848Z,0
2018-08-07T00:54:25.847Z,0
2018-08-07T00:55:25.842Z,0
2018-08-07T00:56:25.852Z,0
2018-08-07T00:57:25.789Z,0
2018-08-07T00:58:25.842Z,0
2018-08-07T00:59:25.727Z,0
2018-08-07T01:00:25.843Z,0
2018-08-07T01:01:25.816Z,0
2018-08-07T01:02:25.852Z,0
2018-08-07T01:03:25.770Z,0
2018-08-07T01:04:25.878Z,0
2018-08-07T01:05:25.850Z,0
2018-08-07T01:06:25.785Z,0
2018-08-07T01:07:25.857Z,0
2018-08-07T01:08:25.859Z,0
2018-08-07T01:09:25.895Z,0
2018-08-07T01:10:25.793Z,0
2018-08-07T01:11:25.796Z,0
2018-08-07T01:12:25.864Z,0
2018-08-07T01:13:25.822Z,0
2018-08-07T01:14:25.928Z,0
2018-08-07T01:15:25.799Z,0
2018-08-07T01:16:25.871Z,0
2018-08-07T01:17:25.797Z,0
2018-08-07T01:18:25.865Z,0
2018-08-07T01:19:25.796Z,0
2018-08-07T01:20:25.795Z,0
2018-08-07T01:21:25.799Z,0
2018-08-07T01:22:25.891Z,0
2018-08-07T01:23:25.872Z,0
2018-08-07T01:24:25.818Z,0
2018-08-07T01:25:25.814Z,0
2018-08-07T01:26:25.832Z,0
2018-08-07T01:27:25.877Z,0
2018-08-07T01:28:25.889Z,0
2018-08-07T01:29:25.809Z,0
2018-08-07T01:30:25.903Z,0
2018-08-07T01:31:25.898Z,0
2018-08-07T01:32:25.871Z,0
2018-08-07T01:33:25.905Z,0
2018-08-07T01:34:25.796Z,0
2018-08-07T01:35:25.837Z,0
2018-08-07T01:36:25.881Z,0
2018-08-07T01:37:25.844Z,0
2018-08-07T01:38:25.809Z,0
2018-08-07T01:39:25.881Z,0
2018-08-07T01:40:25.811Z,0
2018-08-07T01:41:25.809Z,0
2018-08-07T01:42:25.881Z,0
2018-08-07T01:43:25.887Z,0
2018-08-07T01:44:25.822Z,0
2018-08-07T01:45:25.813Z,0
2018-08-07T01:46:25.878Z,0
2018-08-07T01:47:25.789Z,0
2018-08-07T01:48:25.803Z,0
2018-08-07T01:49:25.755Z,0
2018-08-07T01:50:25.777Z,0
2018-08-07T01:51:25.883Z,0
2018-08-07T01:52:25.812Z,0
2018-08-07T01:53:25.797Z,0
2018-08-07T01:54:25.881Z,0
2018-08-07T01:55:25.766Z,0
2018-08-07T01:56:25.795Z,0
2018-08-07T01:57:25.897Z,0
2018-08-07T01:58:25.898Z,0
2018-08-07T01:59:25.924Z,0
2018-08-07T02:00:25.937Z,0
2018-08-07T02:01:25.890Z,0
2018-08-07T02:02:25.871Z,0
2018-08-07T02:03:25.797Z,0
2018-08-07T02:04:25.918Z,0
2018-08-07T02:05:25.834Z,0
2018-08-07T02:06:25.820Z,0
2018-08-07T02:07:25.900Z,0
2018-08-07T02:08:25.840Z,0
2018-08-07T02:09:25.880Z,0
2018-08-07T02:10:25.901Z,0
2018-08-07T02:11:25.884Z,0
2018-08-07T02:12:25.927Z,0
2018-08-07T02:13:25.854Z,0
2018-08-07T02:14:25.863Z,0
2018-08-07T02:15:25.905Z,0
2018-08-07T02:16:25.910Z,0
2018-08-07T02:17:25.794Z,0
2018-08-07T02:18:25.910Z,0
2018-08-07T02:19:25.906Z,0
2018-08-07T02:20:25.907Z,0
2018-08-07T02:21:25.846Z,0
2018-08-07T02:22:25.908Z,0
2018-08-07T02:23:25.844Z,0
2018-08-07T02:24:25.910Z,0
2018-08-07T02:25:25.871Z,0
2018-08-07T02:26:25.844Z,0
2018-08-07T02:27:25.905Z,0
2018-08-07T02:28:25.868Z,0
2018-08-07T02:29:25.931Z,0
2018-08-07T02:30:25.902Z,0
2018-08-07T02:31:25.789Z,0
2018-08-07T02:32:25.821Z,0
2018-08-07T02:33:25.918Z,0
2018-08-07T02:34:25.909Z,0
2018-08-07T02:35:25.911Z,0
2018-08-07T02:36:25.889Z,0
2018-08-07T02:37:25.855Z,0
2018-08-07T02:38:25.880Z,0
2018-08-07T02:39:25.850Z,0
2018-08-07T02:40:25.922Z,0
2018-08-07T02:41:25.855Z,0
2018-08-07T02:42:25.860Z,0
2018-08-07T02:43:25.932Z,0
2018-08-07T02:44:25.851Z,0
2018-08-07T02:45:25.872Z,0
2018-08-07T02:46:25.950Z,0
2018-08-07T02:47:25.942Z,0
2018-08-07T02:48:25.905Z,0
2018-08-07T02:49:25.964Z,0
2018-08-07T02:50:25.944Z,0
2018-08-07T02:51:25.900Z,0
2018-08-07T02:52:25.932Z,0
2018-08-07T02:53:25.960Z,0
2018-08-07T02:54:25.889Z,0
2018-08-07T02:55:25.933Z,0
2018-08-07T02:56:25.757Z,0
2018-08-07T02:57:25.822Z,0
2018-08-07T02:58:25.798Z,0
2018-08-07T02:59:25.819Z,0
2018-08-07T03:00:25.801Z,0
2018-08-07T03:01:25.800Z,0
2018-08-07T03:02:25.809Z,0
2018-08-07T03:03:25.813Z,0
2018-08-07T03:04:25.813Z,0
2018-08-07T03:05:25.870Z,0
2018-08-07T03:06:25.916Z,0
2018-08-07T03:07:25.840Z,0
2018-08-07T03:08:25.948Z,0
2018-08-07T03:09:25.979Z,0
2018-08-07T03:10:25.908Z,0
2018-08-07T03:11:25.882Z,0
2018-08-07T03:12:25.917Z,0
2018-08-07T03:13:25.862Z,0
2018-08-07T03:14:25.961Z,0
2018-08-07T03:15:25.909Z,0
2018-08-07T03:16:25.845Z,0
2018-08-07T03:17:25.819Z,0
2018-08-07T03:18:25.823Z,0
2018-08-07T03:19:25.935Z,0
2018-08-07T03:20:25.936Z,0
2018-08-07T03:21:25.890Z,0
2018-08-07T03:22:25.851Z,0
2018-08-07T03:23:25.906Z,0
2018-08-07T03:24:25.938Z,0
2018-08-07T03:25:25.841Z,0
2018-08-07T03:26:25.917Z,0
2018-08-07T03:27:25.891Z,0
2018-08-07T03:28:25.878Z,0
2018-08-07T03:29:25.935Z,0
2018-08-07T03:30:25.994Z,0
2018-08-07T03:31:25.978Z,0
2018-08-07T03:32:25.927Z,0
2018-08-07T03:33:25.955Z,0
2018-08-07T03:34:25.901Z,0
2018-08-07T03:35:25.929Z,0
2018-08-07T03:36:25.857Z,0
2018-08-07T03:37:25.829Z,0
2018-08-07T03:38:25.952Z,0
2018-08-07T03:39:25.886Z,0
2018-08-07T03:40:25.834Z,0
2018-08-07T03:41:25.838Z,0
2018-08-07T03:42:25.916Z,0
2018-08-07T03:43:25.904Z,0
2018-08-07T03:44:25.941Z,0
2018-08-07T03:45:25.898Z,0
2018-08-07T03:46:25.873Z,0
2018-08-07T03:47:25.966Z,0
2018-08-07T03:48:25.924Z,0
2018-08-07T03:49:25.910Z,0
2018-08-07T03:50:25.986Z,0
2018-08-07T03:51:25.872Z,0
2018-08-07T03:52:25.933Z,0
2018-08-07T03:53:26.007Z,0
2018-08-07T03:54:25.887Z,0
2018-08-07T03:55:26.006Z,0
2018-08-07T03:56:25.893Z,0
2018-08-07T03:57:25.880Z,0
2018-08-07T03:58:26.002Z,0
2018-08-07T03:59:26.014Z,0
2018-08-07T04:00:25.882Z,0
2018-08-07T04:01:25.977Z,0
2018-08-07T04:02:25.882Z,0
2018-08-07T04:03:25.915Z,0
2018-08-07T04:04:25.936Z,0
2018-08-07T04:05:25.995Z,0
2018-08-07T04:06:25.913Z,0
2018-08-07T04:07:25.913Z,0
2018-08-07T04:08:25.981Z,0
2018-08-07T04:09:25.985Z,0
2018-08-07T04:10:25.989Z,0
2018-08-07T04:11:26.107Z,0
2018-08-07T04:12:25.985Z,0
2018-08-07T04:13:25.915Z,0
2018-08-07T04:14:25.986Z,0
2018-08-07T04:15:25.919Z,0
2018-08-07T04:16:25.966Z,0
2018-08-07T04:17:25.920Z,0
2018-08-07T04:18:25.963Z,0
2018-08-07T04:19:25.898Z,0
2018-08-07T04:20:25.971Z,0
2018-08-07T04:21:25.917Z,0
2018-08-07T04:22:25.912Z,0
2018-08-07T04:23:25.965Z,0
2018-08-07T04:24:25.968Z,0
2018-08-07T04:25:25.890Z,0
2018-08-07T04:26:26.015Z,0
2018-08-07T04:27:26.010Z,0
2018-08-07T04:28:25.901Z,0
2018-08-07T04:29:25.924Z,0
2018-08-07T04:30:25.959Z,0
2018-08-07T04:31:26.006Z,0
2018-08-07T04:32:25.996Z,0
2018-08-07T04:33:25.919Z,0
2018-08-07T04:34:26.091Z,0
2018-08-07T04:35:26.026Z,0
2018-08-07T04:36:25.936Z,0
2018-08-07T04:37:26.028Z,0
2018-08-07T04:38:25.955Z,15
2018-08-07T04:39:25.956Z,15
2018-08-07T04:40:26.004Z,16
2018-08-07T04:41:25.910Z,16
2018-08-07T04:42:25.963Z,17
2018-08-07T04:43:25.983Z,19
2018-08-07T04:44:25.987Z,19
2018-08-07T04:45:25.960Z,20
2018-08-07T04:46:25.969Z,21
2018-08-07T04:47:25.909Z,21
2018-08-07T04:48:25.911Z,21
2018-08-07T04:49:26.024Z,22
2018-08-07T04:50:25.928Z,23
2018-08-07T04:51:25.972Z,24
2018-08-07T04:52:25.978Z,24
2018-08-07T04:53:25.972Z,24
2018-08-07T04:54:25.955Z,25
2018-08-07T04:55:25.980Z,24
2018-08-07T04:56:26.014Z,26
2018-08-07T04:57:26.012Z,26
2018-08-07T04:58:25.980Z,27
2018-08-07T04:59:26.016Z,27
2018-08-07T05:00:26.017Z,28
2018-08-07T05:01:25.950Z,28
2018-08-07T05:02:25.951Z,29
2018-08-07T05:03:25.949Z,29
2018-08-07T05:04:26.015Z,29
2018-08-07T05:05:25.948Z,30
2018-08-07T05:06:26.057Z,31
2018-08-07T05:07:26.017Z,32
2018-08-07T05:08:26.059Z,32
2018-08-07T05:09:25.923Z,33
2018-08-07T05:10:26.068Z,32
2018-08-07T05:11:26.004Z,34
2018-08-07T05:12:25.982Z,35
2018-08-07T05:13:26.055Z,35
2018-08-07T05:14:25.987Z,36
2018-08-07T05:15:25.927Z,36
2018-08-07T05:16:26.005Z,36
2018-08-07T05:17:26.003Z,37
2018-08-07T05:18:26.007Z,38
2018-08-07T05:19:26.071Z,38
2018-08-07T05:20:26.054Z,38
2018-08-07T05:21:26.055Z,39
2018-08-07T05:22:26.061Z,40
2018-08-07T05:23:26.056Z,41
2018-08-07T05:24:26.068Z,42
2018-08-07T05:25:26.036Z,42
2018-08-07T05:26:25.936Z,42
2018-08-07T05:27:26.006Z,41
2018-08-07T05:28:26.059Z,44
2018-08-07T05:29:25.995Z,44
2018-08-07T05:30:26.022Z,45
2018-08-07T05:31:26.037Z,45
2018-08-07T05:32:25.994Z,46
2018-08-07T05:33:26.073Z,47
2018-08-07T05:34:26.022Z,48
2018-08-07T05:35:26.067Z,50
2018-08-07T05:36:26.008Z,51
2018-08-07T05:37:26.078Z,52
2018-08-07T05:38:26.011Z,53
2018-08-07T05:39:26.019Z,54
2018-08-07T05:40:26.073Z,57
2018-08-07T05:41:26.085Z,59
2018-08-07T05:42:26.103Z,62
2018-08-07T05:43:25.946Z,64
2018-08-07T05:44:26.051Z,65
2018-08-07T05:45:26.047Z,67
2018-08-07T05:46:26.056Z,70
2018-08-07T05:47:25.956Z,72
2018-08-07T05:48:26.086Z,75
2018-08-07T05:49:26.053Z,76
2018-08-07T05:50:26.226Z,79
2018-08-07T05:51:26.063Z,82
2018-08-07T05:52:26.025Z,87
2018-08-07T05:53:26.093Z,90
2018-08-07T05:54:26.051Z,93
2018-08-07T05:55:26.083Z,97
2018-08-07T05:56:26.026Z,99
2018-08-07T05:57:26.082Z,104
2018-08-07T05:58:26.077Z,115
2018-08-07T05:59:26.090Z,117
2018-08-07T06:00:26.060Z,126
2018-08-07T06:01:25.982Z,135
2018-08-07T06:02:26.041Z,139
2018-08-07T06:03:26.060Z,141
2018-08-07T06:04:26.076Z,143
2018-08-07T06:05:25.983Z,146
2018-08-07T06:06:25.968Z,146
2018-08-07T06:07:26.078Z,143
2018-08-07T06:08:26.094Z,140
2018-08-07T06:09:26.098Z,135
2018-08-07T06:10:26.065Z,127
2018-08-07T06:11:25.966Z,116
2018-08-07T06:12:26.068Z,123
2018-08-07T06:13:26.008Z,119
2018-08-07T06:14:26.102Z,114
2018-08-07T06:15:26.109Z,111
2018-08-07T06:16:26.071Z,106
2018-08-07T06:17:26.045Z,102
2018-08-07T06:18:25.994Z,103
2018-08-07T06:19:26.047Z,102
2018-08-07T06:22:26.149Z,99
2018-08-07T06:23:26.082Z,103
2018-08-07T06:24:26.045Z,105
2018-08-07T06:25:26.048Z,108
2018-08-07T06:26:26.045Z,112
2018-08-07T06:27:25.980Z,108
2018-08-07T06:28:26.051Z,118
2018-08-07T06:29:26.004Z,80
2018-08-07T06:30:26.016Z,144
2018-08-07T06:31:26.050Z,147
2018-08-07T06:32:26.049Z,148
2018-08-07T06:33:26.056Z,153
2018-08-07T06:34:26.049Z,147
2018-08-07T06:35:26.112Z,166
2018-08-07T06:36:26.111Z,203
2018-08-07T06:37:26.035Z,210
2018-08-07T06:38:26.159Z,215
2018-08-07T06:39:26.084Z,215
2018-08-07T06:40:26.064Z,216
2018-08-07T06:41:26.051Z,219
2018-08-07T06:42:26.127Z,214
2018-08-07T06:43:26.068Z,221
2018-08-07T06:44:25.987Z,218
2018-08-07T06:45:26.069Z,220
2018-08-07T06:46:26.053Z,201
2018-08-07T06:47:26.049Z,196
2018-08-07T06:48:26.109Z,199
2018-08-07T06:49:26.049Z,187
2018-08-07T06:50:26.062Z,184
2018-08-07T06:51:26.124Z,181
2018-08-07T06:52:26.002Z,173
2018-08-07T06:53:26.099Z,170
2018-08-07T06:54:26.084Z,175
2018-08-07T06:55:26.074Z,174
2018-08-07T06:56:26.056Z,172
2018-08-07T06:57:26.035Z,174
2018-08-07T06:58:26.033Z,174
2018-08-07T06:59:26.098Z,189
2018-08-07T07:00:26.032Z,195
2018-08-07T07:01:26.098Z,165
2018-08-07T07:02:26.097Z,201
2018-08-07T07:03:26.034Z,216
2018-08-07T07:04:26.115Z,238
2018-08-07T07:05:26.036Z,234
2018-08-07T07:06:26.058Z,246
2018-08-07T07:07:26.128Z,440
2018-08-07T07:08:26.176Z,221
2018-08-07T07:09:26.154Z,488
2018-08-07T07:10:26.139Z,501
2018-08-07T07:11:26.104Z,478
2018-08-07T07:12:26.130Z,208
2018-08-07T07:13:26.082Z,213
2018-08-07T07:14:26.004Z,201
2018-08-07T07:15:26.078Z,419
2018-08-07T07:16:26.069Z,464
2018-08-07T07:17:26.111Z,485
2018-08-07T07:18:26.035Z,385
2018-08-07T07:19:26.036Z,423
2018-08-07T07:20:26.080Z,511
2018-08-07T07:21:26.130Z,515
2018-08-07T07:22:26.142Z,522
2018-08-07T07:23:26.075Z,499
2018-08-07T07:24:26.083Z,480
2018-08-07T07:25:26.153Z,496
2018-08-07T07:26:26.073Z,479
2018-08-07T07:27:26.048Z,515
2018-08-07T07:28:26.006Z,278
2018-08-07T07:29:25.977Z,462
2018-08-07T07:30:26.051Z,300
2018-08-07T07:31:26.081Z,459
2018-08-07T07:32:26.015Z,207
2018-08-07T07:33:25.997Z,308
2018-08-07T07:34:26.013Z,563
2018-08-07T07:35:25.998Z,559
2018-08-07T07:36:26.057Z,496
2018-08-07T07:37:26.101Z,543
2018-08-07T07:38:26.158Z,479
2018-08-07T07:39:26.090Z,471
2018-08-07T07:40:26.128Z,544
2018-08-07T07:41:26.063Z,565
2018-08-07T07:42:26.107Z,453
2018-08-07T07:43:26.131Z,569
2018-08-07T07:44:26.050Z,434
2018-08-07T07:45:26.128Z,607
2018-08-07T07:46:26.052Z,614
2018-08-07T07:47:26.076Z,610
2018-08-07T07:48:26.102Z,627
2018-08-07T07:49:26.039Z,633
2018-08-07T07:50:26.160Z,628
2018-08-07T07:51:26.160Z,610
2018-08-07T07:52:26.037Z,621
2018-08-07T07:53:26.180Z,630
2018-08-07T07:54:26.039Z,634
2018-08-07T07:55:26.077Z,639
2018-08-07T07:56:26.077Z,634
2018-08-07T07:57:26.113Z,634
2018-08-07T07:58:26.120Z,637
2018-08-07T07:59:26.053Z,645
2018-08-07T08:00:26.169Z,644
2018-08-07T08:01:26.105Z,650
2018-08-07T08:02:26.115Z,649
2018-08-07T08:03:26.161Z,646
2018-08-07T08:04:26.046Z,645
2018-08-07T08:05:26.131Z,653
2018-08-07T08:06:26.183Z,660
2018-08-07T08:07:26.084Z,666
2018-08-07T08:08:26.148Z,669
2018-08-07T08:09:26.113Z,672
2018-08-07T08:10:26.162Z,674
2018-08-07T08:11:26.086Z,672
2018-08-07T08:12:26.082Z,677
2018-08-07T08:13:26.212Z,683
2018-08-07T08:14:26.085Z,689
2018-08-07T08:15:26.091Z,693
2018-08-07T08:16:26.151Z,697
2018-08-07T08:17:26.122Z,702
2018-08-07T08:18:26.152Z,701
2018-08-07T08:19:26.140Z,704
2018-08-07T08:20:26.120Z,709
2018-08-07T08:21:26.184Z,716
2018-08-07T08:22:26.158Z,719
2018-08-07T08:23:26.121Z,719
2018-08-07T08:24:26.179Z,718
2018-08-07T08:25:26.153Z,724
2018-08-07T08:26:26.120Z,724
2018-08-07T08:27:26.241Z,729
2018-08-07T08:28:26.082Z,728
2018-08-07T08:29:26.345Z,728
2018-08-07T08:30:26.189Z,734
2018-08-07T08:31:26.085Z,727
2018-08-07T08:32:26.168Z,729
2018-08-07T08:33:26.186Z,736
2018-08-07T08:34:26.166Z,742
2018-08-07T08:35:26.237Z,743
2018-08-07T08:36:26.193Z,745
2018-08-07T08:37:26.145Z,749
2018-08-07T08:38:26.149Z,752
2018-08-07T08:39:26.135Z,755
2018-08-07T08:40:26.198Z,755
2018-08-07T08:41:26.106Z,749
2018-08-07T08:42:26.210Z,762
2018-08-07T08:43:26.218Z,761
2018-08-07T08:44:26.159Z,761
2018-08-07T08:45:26.137Z,769
2018-08-07T08:46:26.151Z,769
2018-08-07T08:47:26.127Z,765
2018-08-07T08:48:26.109Z,769
2018-08-07T08:49:26.264Z,772
2018-08-07T08:50:26.112Z,769
2018-08-07T08:51:26.209Z,779
2018-08-07T08:52:26.181Z,778
2018-08-07T08:53:26.116Z,782
2018-08-07T08:54:26.179Z,784
2018-08-07T08:55:26.181Z,783
2018-08-07T08:56:26.247Z,790
2018-08-07T08:57:26.187Z,796
2018-08-07T08:58:26.182Z,802
2018-08-07T08:59:26.181Z,803
2018-08-07T09:00:26.144Z,804
2018-08-07T09:01:26.117Z,801
2018-08-07T09:02:26.188Z,805
2018-08-07T09:03:26.122Z,811
2018-08-07T09:04:26.133Z,813
2018-08-07T09:05:26.186Z,812
2018-08-07T09:06:26.194Z,812
2018-08-07T09:07:26.186Z,816
2018-08-07T09:08:26.194Z,822
2018-08-07T09:09:26.058Z,819
2018-08-07T09:10:26.321Z,825
2018-08-07T09:11:26.109Z,822
2018-08-07T09:12:26.126Z,819
2018-08-07T09:13:26.129Z,817
2018-08-07T09:14:26.119Z,821
2018-08-07T09:15:26.098Z,828
2018-08-07T09:16:26.121Z,829
2018-08-07T09:17:26.166Z,833
2018-08-07T09:18:26.200Z,832
2018-08-07T09:19:26.227Z,829
2018-08-07T09:20:26.211Z,834
2018-08-07T09:21:26.198Z,840
2018-08-07T09:22:26.172Z,843
2018-08-07T09:23:26.102Z,843
2018-08-07T09:24:26.219Z,845
2018-08-07T09:25:26.348Z,850
2018-08-07T09:26:26.171Z,850
2018-08-07T09:27:26.203Z,858
2018-08-07T09:28:26.164Z,856
2018-08-07T09:29:26.185Z,858
2018-08-07T09:30:26.207Z,858
2018-08-07T09:31:26.108Z,857
2018-08-07T09:32:26.207Z,858
2018-08-07T09:33:26.204Z,866
2018-08-07T09:34:26.175Z,871
2018-08-07T09:35:26.234Z,873
2018-08-07T09:36:26.176Z,871
2018-08-07T09:37:26.165Z,869
2018-08-07T09:38:26.170Z,870
2018-08-07T09:39:26.230Z,871
2018-08-07T09:40:26.189Z,875
2018-08-07T09:41:26.234Z,877
2018-08-07T09:42:26.175Z,878
2018-08-07T09:43:26.212Z,874
2018-08-07T09:44:26.188Z,873
2018-08-07T09:45:26.198Z,871
2018-08-07T09:46:26.235Z,874
2018-08-07T09:47:26.116Z,877
2018-08-07T09:48:26.121Z,880
2018-08-07T09:49:26.159Z,876
2018-08-07T09:50:26.155Z,882
2018-08-07T09:51:26.213Z,881
2018-08-07T09:52:26.245Z,890
2018-08-07T09:53:26.212Z,897
2018-08-07T09:54:26.107Z,893
2018-08-07T09:55:26.129Z,895
2018-08-07T09:56:26.206Z,893
2018-08-07T09:57:26.210Z,890
2018-08-07T09:58:26.255Z,896
2018-08-07T09:59:26.156Z,898
2018-08-07T10:00:26.210Z,899
2018-08-07T10:01:26.177Z,895
2018-08-07T10:02:26.115Z,896
2018-08-07T10:03:26.229Z,892
2018-08-07T10:04:26.177Z,901
2018-08-07T10:05:26.297Z,904
2018-08-07T10:06:26.162Z,903
2018-08-07T10:07:26.232Z,904
2018-08-07T10:08:26.151Z,902
2018-08-07T10:09:26.209Z,898
2018-08-07T10:10:26.228Z,904
2018-08-07T10:11:26.268Z,909
2018-08-07T10:12:26.344Z,909
2018-08-07T10:13:26.135Z,912
2018-08-07T10:14:26.217Z,911
2018-08-07T10:15:26.252Z,904
2018-08-07T10:16:26.216Z,909
2018-08-07T10:17:26.235Z,918
2018-08-07T10:18:26.173Z,918
2018-08-07T10:19:26.196Z,919
2018-08-07T10:20:26.175Z,909
2018-08-07T10:21:26.239Z,910
2018-08-07T10:22:26.174Z,914
2018-08-07T10:23:26.362Z,922
2018-08-07T10:24:26.175Z,926
2018-08-07T10:25:26.248Z,926
2018-08-07T10:26:26.204Z,924
2018-08-07T10:27:26.247Z,918
2018-08-07T10:28:26.178Z,927
2018-08-07T10:29:26.249Z,928
2018-08-07T10:30:26.230Z,926
2018-08-07T10:31:26.185Z,928
2018-08-07T10:32:26.184Z,928
2018-08-07T10:33:26.182Z,920
2018-08-07T10:34:26.251Z,923
2018-08-07T10:35:26.184Z,932
2018-08-07T10:36:26.248Z,933
2018-08-07T10:37:26.186Z,936
2018-08-07T10:38:26.255Z,937
2018-08-07T10:39:26.250Z,928
2018-08-07T10:40:26.280Z,937
2018-08-07T10:41:26.250Z,938
2018-08-07T10:42:26.194Z,936
2018-08-07T10:43:26.223Z,937
2018-08-07T10:44:26.254Z,938
2018-08-07T10:45:26.196Z,930
2018-08-07T10:46:26.318Z,931
2018-08-07T10:47:26.224Z,939
2018-08-07T10:48:26.163Z,937
2018-08-07T10:49:26.217Z,942
2018-08-07T10:50:26.163Z,931
2018-08-07T10:51:26.230Z,930
2018-08-07T10:52:26.239Z,941
2018-08-07T10:53:26.241Z,939
2018-08-07T10:54:26.172Z,935
2018-08-07T10:55:26.240Z,932
2018-08-07T10:56:26.306Z,934
2018-08-07T10:57:26.201Z,930
2018-08-07T10:58:26.251Z,930
2018-08-07T10:59:26.207Z,931
2018-08-07T11:00:26.157Z,934
2018-08-07T11:01:26.199Z,933
2018-08-07T11:02:26.268Z,932
2018-08-07T11:03:26.269Z,924
2018-08-07T11:04:26.203Z,926
2018-08-07T11:05:26.243Z,923
2018-08-07T11:06:26.206Z,930
2018-08-07T11:07:26.250Z,934
2018-08-07T11:08:26.264Z,936
2018-08-07T11:09:26.246Z,934
2018-08-07T11:10:26.209Z,930
2018-08-07T11:11:26.144Z,932
2018-08-07T11:12:26.149Z,937
2018-08-07T11:13:26.235Z,937
2018-08-07T11:14:26.210Z,935
2018-08-07T11:15:26.229Z,927
2018-08-07T11:16:26.181Z,930
2018-08-07T11:17:26.316Z,936
2018-08-07T11:18:26.237Z,931
2018-08-07T11:19:26.279Z,939
2018-08-07T11:20:26.251Z,938
2018-08-07T11:21:26.219Z,937
2018-08-07T11:22:26.248Z,932
2018-08-07T11:23:26.320Z,906
2018-08-07T11:24:26.345Z,934
2018-08-07T11:25:26.282Z,936
2018-08-07T11:26:26.194Z,932
2018-08-07T11:27:26.285Z,931
2018-08-07T11:28:26.249Z,921
2018-08-07T11:29:26.308Z,928
2018-08-07T11:30:26.306Z,928
2018-08-07T11:31:26.260Z,934
2018-08-07T11:32:26.313Z,938
2018-08-07T11:33:26.309Z,944
2018-08-07T11:34:26.292Z,937
2018-08-07T11:35:26.368Z,935
2018-08-07T11:36:26.276Z,948
2018-08-07T11:37:26.201Z,945
2018-08-07T11:38:26.201Z,950
2018-08-07T11:39:26.309Z,955
2018-08-07T11:40:26.331Z,953
2018-08-07T11:41:26.411Z,961
2018-08-07T11:42:26.194Z,960
2018-08-07T11:43:26.275Z,964
2018-08-07T11:44:26.294Z,923
2018-08-07T11:45:26.322Z,988
2018-08-07T11:46:26.278Z,935
2018-08-07T11:47:26.202Z,650
2018-08-07T11:48:26.393Z,912
2018-08-07T11:49:26.284Z,687
2018-08-07T11:50:26.265Z,725
2018-08-07T11:51:26.301Z,918
2018-08-07T11:52:26.341Z,799
2018-08-07T11:53:26.343Z,754
2018-08-07T11:54:26.308Z,985
2018-08-07T11:55:26.301Z,973
2018-08-07T11:56:26.352Z,963
2018-08-07T11:57:26.284Z,962
2018-08-07T11:58:26.345Z,963
2018-08-07T11:59:26.270Z,959
2018-08-07T12:00:26.291Z,965
2018-08-07T12:01:26.329Z,960
2018-08-07T12:02:26.277Z,958
2018-08-07T12:03:26.285Z,958
2018-08-07T12:04:26.313Z,953
2018-08-07T12:05:26.355Z,945
2018-08-07T12:06:26.267Z,946
2018-08-07T12:07:26.320Z,944
2018-08-07T12:08:26.126Z,945
2018-08-07T12:09:26.215Z,944
2018-08-07T12:10:26.280Z,941
2018-08-07T12:11:26.352Z,940
2018-08-07T12:12:26.275Z,932
2018-08-07T12:13:26.256Z,943
2018-08-07T12:14:26.314Z,945
2018-08-07T12:15:26.242Z,953
2018-08-07T12:16:26.319Z,957
2018-08-07T12:17:26.186Z,961
2018-08-07T12:18:26.270Z,960
2018-08-07T12:19:26.207Z,927
2018-08-07T12:20:26.323Z,825
2018-08-07T12:21:26.275Z,971
2018-08-07T12:22:26.277Z,965
2018-08-07T12:23:26.232Z,957
2018-08-07T12:24:26.258Z,954
2018-08-07T12:25:26.192Z,947
2018-08-07T12:26:26.285Z,937
2018-08-07T12:27:26.265Z,931
2018-08-07T12:28:26.265Z,932
2018-08-07T12:29:26.326Z,920
2018-08-07T12:30:26.259Z,936
2018-08-07T12:31:26.333Z,938
2018-08-07T12:32:26.297Z,475
2018-08-07T12:33:26.269Z,948
2018-08-07T12:34:26.264Z,202
2018-08-07T12:35:26.332Z,207
2018-08-07T12:36:26.331Z,971
2018-08-07T12:37:26.211Z,227
2018-08-07T12:38:26.256Z,997
2018-08-07T12:39:26.297Z,987
2018-08-07T12:40:26.325Z,981
2018-08-07T12:41:26.318Z,970
2018-08-07T12:42:26.321Z,957
2018-08-07T12:43:26.340Z,944
2018-08-07T12:44:26.209Z,931
2018-08-07T12:45:26.251Z,923
2018-08-07T12:46:26.338Z,915
2018-08-07T12:47:26.374Z,915
2018-08-07T12:48:26.276Z,916
2018-08-07T12:49:26.341Z,909
2018-08-07T12:50:26.271Z,898
2018-08-07T12:51:26.397Z,898
2018-08-07T12:52:26.277Z,896
2018-08-07T12:53:26.282Z,883
2018-08-07T12:54:26.277Z,885
2018-08-07T12:55:26.347Z,883
2018-08-07T12:56:26.348Z,859
2018-08-07T12:57:26.302Z,882
2018-08-07T12:58:26.331Z,895
2018-08-07T12:59:26.258Z,897
2018-08-07T13:00:26.257Z,845
2018-08-07T13:01:26.338Z,887
2018-08-07T13:02:26.236Z,893
2018-08-07T13:03:26.258Z,901
2018-08-07T13:04:26.303Z,827
2018-08-07T13:05:26.256Z,909
2018-08-07T13:06:26.257Z,771
2018-08-07T13:07:26.323Z,870
2018-08-07T13:08:26.431Z,870
2018-08-07T13:09:26.382Z,879
2018-08-07T13:10:26.284Z,894
2018-08-07T13:11:26.336Z,881
2018-08-07T13:12:26.390Z,823
2018-08-07T13:13:26.337Z,890
2018-08-07T13:14:26.318Z,888
2018-08-07T13:15:26.357Z,892
2018-08-07T13:16:26.307Z,897
2018-08-07T13:17:26.447Z,897
2018-08-07T13:18:26.326Z,891
2018-08-07T13:19:26.270Z,896
2018-08-07T13:20:26.323Z,885
2018-08-07T13:21:26.396Z,878
2018-08-07T13:22:26.338Z,874
2018-08-07T13:23:26.285Z,873
2018-08-07T13:24:26.287Z,864
2018-08-07T13:25:26.340Z,861
2018-08-07T13:26:26.279Z,851
2018-08-07T13:27:26.370Z,832
2018-08-07T13:28:26.342Z,840
2018-08-07T13:29:26.279Z,841
2018-08-07T13:30:26.392Z,830
2018-08-07T13:31:26.294Z,819
2018-08-07T13:32:26.278Z,820
2018-08-07T13:33:26.341Z,825
2018-08-07T13:34:26.331Z,826
2018-08-07T13:35:26.283Z,828
2018-08-07T13:36:26.282Z,827
2018-08-07T13:37:26.406Z,818
2018-08-07T13:38:26.443Z,500
2018-08-07T13:39:26.375Z,806
2018-08-07T13:40:26.412Z,834
2018-08-07T13:41:26.378Z,835
2018-08-07T13:42:26.468Z,833
2018-08-07T13:43:26.363Z,826
2018-08-07T13:44:26.322Z,823
2018-08-07T13:45:26.412Z,826
2018-08-07T13:46:26.405Z,822
2018-08-07T13:47:26.397Z,816
2018-08-07T13:48:26.365Z,812
2018-08-07T13:49:26.320Z,803
2018-08-07T13:50:26.335Z,796
2018-08-07T13:51:26.388Z,803
2018-08-07T13:52:26.386Z,795
2018-08-07T13:53:26.389Z,792
2018-08-07T13:54:26.387Z,793
2018-08-07T13:55:26.326Z,786
2018-08-07T13:56:26.380Z,778
2018-08-07T13:57:26.322Z,773
2018-08-07T13:58:26.362Z,776
2018-08-07T13:59:26.333Z,760
2018-08-07T14:00:26.372Z,760
2018-08-07T14:01:26.365Z,757
2018-08-07T14:02:26.335Z,757
2018-08-07T14:03:26.411Z,759
2018-08-07T14:04:26.422Z,760
2018-08-07T14:05:26.425Z,758
2018-08-07T14:06:26.354Z,756
2018-08-07T14:07:26.354Z,758
2018-08-07T14:08:26.406Z,763
2018-08-07T14:09:26.396Z,773
2018-08-07T14:10:26.334Z,774